Menu

Last Readings (13 mins ago) Mon, 24 Nov 2014 01:30 +10:00 Seven Days Extremes
Parameter When Value Minimum Maximum
13 mins ago 14.53 km/h E (7.84 knots) 1.0 km/h SSE (0.54 knots) 25.79 km/h SE (13.93 knots)
13 mins ago 0.1 mm 0.0 mm 0.1 mm
13 mins ago -1.05 umol s-¹ m-² -3.49 umol s-¹ m-² 2114.79 umol s-¹ m-²
13 mins ago 77.6 % 59.9 % 83.9 %
13 mins ago 26.5 °C 24.7 °C 27.5 °C
13 mins ago 1011.3 hpa 1009.0 hpa 1015.2 hpa
No quality control performed Bad data Probably bad data Probably good data Good data
Date wind speed water temperature@6.0m rain light humidity air temperature air pressure
2014-11-23 09:50 AM GMT+10:00 17.02 km/h SE (9.19 knots) 0.0 mm 1441.26 umol s-¹ m-² 71.8 % 27.1 °C 1014.0 hpa
2014-11-23 13:10 PM GMT+10:00 19.81 km/h SSE (10.7 knots) 0.0 mm 1829.22 umol s-¹ m-² 73.1 % 27.2 °C 1012.2 hpa
2014-11-23 23:20 PM GMT+10:00 17.87 km/h ESE (9.65 knots) 0.0 mm 0.17 umol s-¹ m-² 76.8 % 26.8 °C 1012.9 hpa
2014-11-23 04:00 AM GMT+10:00 19.32 km/h SE (10.43 knots) 0.0 mm 0.37 umol s-¹ m-² 73.2 % 26.4 °C 1011.0 hpa
2014-11-23 03:20 AM GMT+10:00 21.93 km/h SE (11.84 knots) 0.0 mm 0.24 umol s-¹ m-² 73.1 % 26.4 °C 1011.0 hpa
2014-11-23 05:20 AM GMT+10:00 22.88 km/h SE (12.35 knots) 0.0 mm 0.85 umol s-¹ m-² 75.6 % 26.4 °C 1011.3 hpa
2014-11-23 05:00 AM GMT+10:00 16.1 km/h SE (8.69 knots) 0.0 mm 0.97 umol s-¹ m-² 74.4 % 26.5 °C 1011.3 hpa
2014-11-23 10:50 AM GMT+10:00 18.11 km/h SE (9.78 knots) 0.0 mm 1811.9 umol s-¹ m-² 70.9 % 27.1 °C 1013.5 hpa
2014-11-23 21:10 PM GMT+10:00 20.28 km/h ESE (10.95 knots) 0.0 mm 0.7 umol s-¹ m-² 73.5 % 26.9 °C 1012.6 hpa
2014-11-23 19:10 PM GMT+10:00 22.41 km/h SE (12.1 knots) 0.0 mm -0.37 umol s-¹ m-² 73.8 % 26.7 °C 1011.4 hpa
2014-11-23 12:40 PM GMT+10:00 19.72 km/h SSE (10.65 knots) 0.0 mm 1863.99 umol s-¹ m-² 72.8 % 27.0 °C 1012.5 hpa
2014-11-23 22:10 PM GMT+10:00 18.76 km/h ESE (10.13 knots) 0.0 mm 0.28 umol s-¹ m-² 75.6 % 27.0 °C 1013.0 hpa
2014-11-23 02:00 AM GMT+10:00 21.24 km/h SE (11.47 knots) 0.0 mm 1.13 umol s-¹ m-² 73.1 % 26.4 °C 1011.0 hpa
2014-11-23 21:50 PM GMT+10:00 18.7 km/h ESE (10.1 knots) 0.0 mm 1.03 umol s-¹ m-² 75.9 % 27.0 °C 1012.8 hpa
2014-11-23 21:20 PM GMT+10:00 19.95 km/h ESE (10.77 knots) 0.0 mm 1.0 umol s-¹ m-² 73.8 % 26.9 °C 1012.7 hpa
2014-11-23 06:10 AM GMT+10:00 23.01 km/h SE (12.43 knots) 0.0 mm 98.9 umol s-¹ m-² 74.4 % 26.5 °C 1012.0 hpa
2014-11-24 00:20 AM GMT+10:00 18.28 km/h ESE (9.87 knots) 0.0 mm 0.61 umol s-¹ m-² 76.8 % 26.8 °C 1012.2 hpa
2014-11-23 16:20 PM GMT+10:00 24.33 km/h SE (13.14 knots) 0.0 mm 889.14 umol s-¹ m-² 72.8 % 27.2 °C 1010.5 hpa
2014-11-24 00:10 AM GMT+10:00 19.22 km/h ESE (10.38 knots) 0.0 mm 0.49 umol s-¹ m-² 76.3 % 26.6 °C 1012.4 hpa
2014-11-23 02:40 AM GMT+10:00 22.15 km/h SE (11.96 knots) 0.0 mm 0.55 umol s-¹ m-² 73.0 % 26.2 °C 1011.2 hpa
2014-11-23 01:50 AM GMT+10:00 21.39 km/h SE (11.55 knots) 0.0 mm 0.59 umol s-¹ m-² 73.9 % 26.4 °C 1011.0 hpa
2014-11-23 09:10 AM GMT+10:00 19.35 km/h SE (10.45 knots) 0.0 mm 1433.16 umol s-¹ m-² 69.5 % 27.0 °C 1013.8 hpa
2014-11-23 02:20 AM GMT+10:00 22.65 km/h SE (12.23 knots) 0.0 mm 0.55 umol s-¹ m-² 73.7 % 26.4 °C 1011.1 hpa
2014-11-23 03:30 AM GMT+10:00 22.94 km/h SE (12.39 knots) 0.0 mm 0.65 umol s-¹ m-² 71.3 % 26.4 °C 1011.0 hpa
2014-11-23 09:30 AM GMT+10:00 18.36 km/h SE (9.91 knots) 0.0 mm 1513.48 umol s-¹ m-² 70.6 % 27.0 °C 1013.8 hpa
2014-11-23 04:50 AM GMT+10:00 16.88 km/h SE (9.12 knots) 0.0 mm 1.01 umol s-¹ m-² 73.1 % 26.4 °C 1011.2 hpa
2014-11-23 15:00 PM GMT+10:00 22.9 km/h SE (12.36 knots) 0.0 mm 1402.1 umol s-¹ m-² 72.7 % 27.1 °C 1011.2 hpa
2014-11-23 10:00 AM GMT+10:00 16.32 km/h SSE (8.81 knots) 0.0 mm 1441.46 umol s-¹ m-² 72.6 % 27.1 °C 1013.9 hpa
2014-11-23 14:50 PM GMT+10:00 22.72 km/h SE (12.27 knots) 0.0 mm 1459.98 umol s-¹ m-² 73.3 % 27.0 °C 1011.2 hpa
2014-11-23 16:00 PM GMT+10:00 24.36 km/h SE (13.15 knots) 0.0 mm 1025.41 umol s-¹ m-² 71.4 % 27.1 °C 1010.6 hpa
2014-11-23 23:40 PM GMT+10:00 15.41 km/h ESE (8.32 knots) 0.0 mm 0.14 umol s-¹ m-² 77.9 % 26.7 °C 1012.7 hpa
2014-11-23 13:30 PM GMT+10:00 20.63 km/h SSE (11.14 knots) 0.0 mm 1777.78 umol s-¹ m-² 72.8 % 27.1 °C 1011.9 hpa
2014-11-23 22:00 PM GMT+10:00 19.15 km/h ESE (10.34 knots) 0.0 mm 0.17 umol s-¹ m-² 74.8 % 26.8 °C 1012.9 hpa
2014-11-23 04:20 AM GMT+10:00 18.39 km/h ESE (9.93 knots) 0.0 mm 0.76 umol s-¹ m-² 73.1 % 26.6 °C 1011.1 hpa
2014-11-23 06:50 AM GMT+10:00 20.25 km/h ESE (10.93 knots) 0.0 mm 392.97 umol s-¹ m-² 72.4 % 26.6 °C 1012.5 hpa
2014-11-23 09:00 AM GMT+10:00 20.57 km/h SE (11.11 knots) 0.0 mm 1415.11 umol s-¹ m-² 70.6 % 27.0 °C 1013.7 hpa
2014-11-23 18:00 PM GMT+10:00 20.98 km/h SE (11.33 knots) 0.0 mm 138.86 umol s-¹ m-² 73.4 % 27.0 °C 1010.7 hpa
2014-11-23 04:30 AM GMT+10:00 18.82 km/h ESE (10.16 knots) 0.0 mm 0.52 umol s-¹ m-² 71.6 % 26.4 °C 1011.2 hpa
2014-11-24 00:00 AM GMT+10:00 19.38 km/h SE (10.47 knots) 0.0 mm 0.38 umol s-¹ m-² 76.5 % 26.8 °C 1012.6 hpa
2014-11-23 08:50 AM GMT+10:00 19.42 km/h SE (10.49 knots) 0.0 mm 1184.7 umol s-¹ m-² 71.9 % 26.9 °C 1013.6 hpa
2014-11-23 23:50 PM GMT+10:00 18.72 km/h SE (10.11 knots) 0.0 mm 0.28 umol s-¹ m-² 76.7 % 26.7 °C 1012.6 hpa
2014-11-23 02:50 AM GMT+10:00 21.92 km/h SE (11.84 knots) 0.0 mm 0.41 umol s-¹ m-² 73.5 % 26.3 °C 1011.2 hpa
2014-11-23 10:10 AM GMT+10:00 18.25 km/h SE (9.85 knots) 0.0 mm 1713.78 umol s-¹ m-² 71.9 % 27.0 °C 1013.8 hpa
2014-11-23 08:10 AM GMT+10:00 20.15 km/h SE (10.88 knots) 0.0 mm 997.8 umol s-¹ m-² 71.5 % 26.8 °C 1013.4 hpa
2014-11-23 13:50 PM GMT+10:00 22.37 km/h SSE (12.08 knots) 0.0 mm 1724.32 umol s-¹ m-² 73.5 % 27.1 °C 1011.6 hpa
2014-11-23 07:20 AM GMT+10:00 20.9 km/h SE (11.28 knots) 0.0 mm 626.79 umol s-¹ m-² 72.0 % 26.6 °C 1013.0 hpa
2014-11-23 09:40 AM GMT+10:00 17.72 km/h SE (9.57 knots) 0.0 mm 1546.67 umol s-¹ m-² 72.1 % 27.0 °C 1013.9 hpa
2014-11-23 12:10 PM GMT+10:00 18.35 km/h SSE (9.91 knots) 0.0 mm 1882.22 umol s-¹ m-² 72.0 % 27.0 °C 1012.6 hpa
2014-11-23 15:20 PM GMT+10:00 24.54 km/h SE (13.25 knots) 0.0 mm 1324.29 umol s-¹ m-² 71.7 % 27.1 °C 1011.0 hpa
2014-11-23 03:50 AM GMT+10:00 20.74 km/h SE (11.2 knots) 0.0 mm 0.14 umol s-¹ m-² 72.7 % 26.3 °C 1011.0 hpa
2014-11-23 20:10 PM GMT+10:00 24.05 km/h ESE (12.98 knots) 0.0 mm 0.51 umol s-¹ m-² 74.2 % 27.0 °C 1012.1 hpa
2014-11-23 17:30 PM GMT+10:00 23.34 km/h SE (12.6 knots) 0.0 mm 292.2 umol s-¹ m-² 71.3 % 27.0 °C 1010.6 hpa
2014-11-23 23:00 PM GMT+10:00 18.0 km/h ESE (9.72 knots) 0.0 mm 0.35 umol s-¹ m-² 75.4 % 26.8 °C 1013.0 hpa
2014-11-23 08:40 AM GMT+10:00 19.17 km/h SE (10.35 knots) 0.0 mm 1249.39 umol s-¹ m-² 71.9 % 27.0 °C 1013.5 hpa
2014-11-23 14:30 PM GMT+10:00 22.85 km/h SE (12.34 knots) 0.0 mm 1556.73 umol s-¹ m-² 73.3 % 27.1 °C 1011.3 hpa
2014-11-23 04:40 AM GMT+10:00 18.41 km/h SE (9.94 knots) 0.0 mm 0.4 umol s-¹ m-² 72.1 % 26.3 °C 1011.2 hpa
2014-11-23 21:30 PM GMT+10:00 20.87 km/h ESE (11.27 knots) 0.0 mm 1.27 umol s-¹ m-² 74.0 % 27.0 °C 1012.6 hpa
2014-11-23 20:30 PM GMT+10:00 22.27 km/h ESE (12.02 knots) 0.0 mm 1.56 umol s-¹ m-² 73.7 % 26.9 °C 1012.5 hpa
2014-11-23 14:20 PM GMT+10:00 23.53 km/h SSE (12.7 knots) 0.0 mm 1602.27 umol s-¹ m-² 72.7 % 27.2 °C 1011.4 hpa
2014-11-23 06:30 AM GMT+10:00 21.11 km/h SE (11.4 knots) 0.0 mm 282.35 umol s-¹ m-² 73.8 % 26.5 °C 1012.3 hpa
2014-11-23 10:40 AM GMT+10:00 17.48 km/h SE (9.44 knots) 0.0 mm 1780.94 umol s-¹ m-² 71.5 % 27.1 °C 1013.7 hpa
2014-11-23 08:30 AM GMT+10:00 19.51 km/h SE (10.54 knots) 0.0 mm 1171.91 umol s-¹ m-² 72.2 % 26.9 °C 1013.5 hpa
2014-11-24 00:50 AM GMT+10:00 21.16 km/h E (11.43 knots) 0.1 mm 0.15 umol s-¹ m-² 73.8 % 25.6 °C 1011.6 hpa
2014-11-23 14:10 PM GMT+10:00 22.24 km/h SSE (12.01 knots) 0.0 mm 1650.92 umol s-¹ m-² 72.9 % 27.0 °C 1011.4 hpa
2014-11-23 16:50 PM GMT+10:00 22.54 km/h SE (12.17 knots) 0.0 mm 662.04 umol s-¹ m-² 73.2 % 27.3 °C 1010.4 hpa
2014-11-23 22:50 PM GMT+10:00 18.32 km/h ESE (9.89 knots) 0.0 mm 0.26 umol s-¹ m-² 75.9 % 26.8 °C 1013.0 hpa
2014-11-23 11:50 AM GMT+10:00 18.04 km/h SSE (9.74 knots) 0.0 mm 1826.25 umol s-¹ m-² 72.2 % 27.0 °C 1012.8 hpa
2014-11-23 02:30 AM GMT+10:00 20.84 km/h SE (11.25 knots) 0.0 mm 0.72 umol s-¹ m-² 72.9 % 26.4 °C 1011.1 hpa
2014-11-23 19:20 PM GMT+10:00 22.22 km/h ESE (12.0 knots) 0.0 mm 0.44 umol s-¹ m-² 75.0 % 27.0 °C 1011.5 hpa
2014-11-23 17:50 PM GMT+10:00 22.6 km/h SE (12.21 knots) 0.0 mm 226.54 umol s-¹ m-² 72.6 % 27.1 °C 1010.7 hpa
2014-11-23 07:30 AM GMT+10:00 21.18 km/h SE (11.44 knots) 0.0 mm 768.67 umol s-¹ m-² 71.6 % 26.8 °C 1013.1 hpa
2014-11-23 16:40 PM GMT+10:00 23.93 km/h SE (12.92 knots) 0.0 mm 737.62 umol s-¹ m-² 71.5 % 27.1 °C 1010.4 hpa
2014-11-23 20:40 PM GMT+10:00 19.91 km/h ESE (10.75 knots) 0.0 mm 0.58 umol s-¹ m-² 75.0 % 27.1 °C 1012.5 hpa
2014-11-23 07:10 AM GMT+10:00 20.82 km/h SE (11.24 knots) 0.0 mm 256.62 umol s-¹ m-² 73.7 % 26.6 °C 1012.8 hpa
2014-11-23 23:30 PM GMT+10:00 15.28 km/h ESE (8.25 knots) 0.0 mm 1.34 umol s-¹ m-² 77.3 % 26.8 °C 1012.9 hpa
2014-11-23 05:10 AM GMT+10:00 20.78 km/h SE (11.22 knots) 0.0 mm -0.3 umol s-¹ m-² 75.8 % 26.5 °C 1011.2 hpa
2014-11-23 11:00 AM GMT+10:00 17.79 km/h SE (9.61 knots) 0.0 mm 1826.89 umol s-¹ m-² 71.5 % 27.1 °C 1013.4 hpa
2014-11-23 15:10 PM GMT+10:00 23.35 km/h SE (12.61 knots) 0.0 mm 1356.81 umol s-¹ m-² 72.0 % 27.3 °C 1011.1 hpa
2014-11-23 13:40 PM GMT+10:00 20.71 km/h SSE (11.18 knots) 0.0 mm 1738.6 umol s-¹ m-² 73.3 % 27.1 °C 1011.8 hpa
2014-11-23 19:00 PM GMT+10:00 22.77 km/h SE (12.29 knots) 0.0 mm 0.73 umol s-¹ m-² 74.9 % 26.9 °C 1011.2 hpa
2014-11-23 05:30 AM GMT+10:00 23.04 km/h SE (12.44 knots) 0.0 mm 3.46 umol s-¹ m-² 75.2 % 26.4 °C 1011.4 hpa
2014-11-23 18:30 PM GMT+10:00 21.51 km/h SE (11.62 knots) 0.0 mm 11.26 umol s-¹ m-² 74.4 % 27.0 °C 1010.9 hpa
2014-11-23 09:20 AM GMT+10:00 18.9 km/h SE (10.2 knots) 0.0 mm 1441.59 umol s-¹ m-² 71.7 % 27.1 °C 1013.8 hpa
2014-11-23 03:10 AM GMT+10:00 21.99 km/h SE (11.87 knots) 0.0 mm 0.96 umol s-¹ m-² 71.5 % 26.3 °C 1011.1 hpa
2014-11-23 03:00 AM GMT+10:00 22.16 km/h SE (11.97 knots) 0.0 mm 0.63 umol s-¹ m-² 72.9 % 26.3 °C 1011.2 hpa
2014-11-23 18:10 PM GMT+10:00 22.67 km/h SE (12.24 knots) 0.0 mm 67.1 umol s-¹ m-² 74.6 % 27.1 °C 1010.8 hpa
2014-11-23 04:10 AM GMT+10:00 18.5 km/h SE (9.99 knots) 0.0 mm 0.63 umol s-¹ m-² 71.9 % 26.3 °C 1011.1 hpa
2014-11-23 16:10 PM GMT+10:00 23.98 km/h SE (12.95 knots) 0.0 mm 951.56 umol s-¹ m-² 71.7 % 27.2 °C 1010.6 hpa
2014-11-23 14:00 PM GMT+10:00 22.05 km/h SSE (11.91 knots) 0.0 mm 1697.22 umol s-¹ m-² 74.3 % 27.2 °C 1011.5 hpa
2014-11-24 01:10 AM GMT+10:00 11.4 km/h E (6.15 knots) 0.1 mm 0.56 umol s-¹ m-² 75.7 % 26.2 °C 1011.3 hpa
2014-11-24 00:30 AM GMT+10:00 21.01 km/h ESE (11.34 knots) 0.0 mm -0.27 umol s-¹ m-² 77.1 % 26.7 °C 1012.1 hpa
2014-11-23 23:10 PM GMT+10:00 20.48 km/h ESE (11.06 knots) 0.0 mm -0.02 umol s-¹ m-² 74.8 % 26.9 °C 1012.9 hpa
2014-11-23 18:40 PM GMT+10:00 21.48 km/h SE (11.6 knots) 0.0 mm 3.8 umol s-¹ m-² 74.4 % 26.9 °C 1011.0 hpa
2014-11-24 01:30 AM GMT+10:00 14.53 km/h E (7.84 knots) 0.1 mm -1.05 umol s-¹ m-² 77.6 % 26.5 °C 1011.3 hpa
2014-11-23 14:40 PM GMT+10:00 22.19 km/h SE (11.98 knots) 0.0 mm 1516.17 umol s-¹ m-² 74.4 % 27.1 °C 1011.2 hpa
2014-11-23 07:40 AM GMT+10:00 19.86 km/h SE (10.72 knots) 0.0 mm 643.02 umol s-¹ m-² 72.8 % 26.8 °C 1013.2 hpa
2014-11-23 10:20 AM GMT+10:00 17.72 km/h SE (9.57 knots) 0.0 mm 1760.88 umol s-¹ m-² 71.9 % 27.1 °C 1013.8 hpa
2014-11-23 07:00 AM GMT+10:00 21.55 km/h SE (11.64 knots) 0.0 mm 374.85 umol s-¹ m-² 72.7 % 26.6 °C 1012.6 hpa
2014-11-23 17:00 PM GMT+10:00 23.32 km/h SE (12.59 knots) 0.0 mm 518.11 umol s-¹ m-² 73.7 % 27.2 °C 1010.4 hpa
2014-11-24 01:00 AM GMT+10:00 15.58 km/h E (8.41 knots) 0.1 mm 1.02 umol s-¹ m-² 76.4 % 26.2 °C 1011.5 hpa
2014-11-23 16:30 PM GMT+10:00 23.5 km/h SE (12.69 knots) 0.0 mm 813.81 umol s-¹ m-² 71.5 % 27.1 °C 1010.4 hpa
2014-11-23 19:30 PM GMT+10:00 23.04 km/h SE (12.44 knots) 0.0 mm 0.39 umol s-¹ m-² 75.6 % 26.9 °C 1011.9 hpa
2014-11-23 20:20 PM GMT+10:00 21.75 km/h ESE (11.74 knots) 0.0 mm 0.98 umol s-¹ m-² 74.8 % 27.0 °C 1012.3 hpa
2014-11-23 11:10 AM GMT+10:00 18.66 km/h SE (10.07 knots) 0.0 mm 1846.29 umol s-¹ m-² 71.4 % 27.2 °C 1013.3 hpa
2014-11-23 08:20 AM GMT+10:00 21.05 km/h SE (11.37 knots) 0.0 mm 1148.86 umol s-¹ m-² 71.8 % 27.0 °C 1013.5 hpa
2014-11-23 22:30 PM GMT+10:00 18.36 km/h ESE (9.91 knots) 0.0 mm 0.3 umol s-¹ m-² 74.5 % 26.8 °C 1013.0 hpa
2014-11-23 19:50 PM GMT+10:00 22.22 km/h ESE (12.0 knots) 0.0 mm -0.08 umol s-¹ m-² 75.1 % 26.9 °C 1012.0 hpa
2014-11-23 19:40 PM GMT+10:00 21.25 km/h SE (11.48 knots) 0.0 mm 1.08 umol s-¹ m-² 74.7 % 26.9 °C 1011.9 hpa
2014-11-23 11:20 AM GMT+10:00 18.33 km/h SE (9.9 knots) 0.0 mm 1809.17 umol s-¹ m-² 72.7 % 27.2 °C 1013.3 hpa
2014-11-23 15:50 PM GMT+10:00 25.79 km/h SE (13.93 knots) 0.0 mm 1090.03 umol s-¹ m-² 71.2 % 27.2 °C 1010.6 hpa
2014-11-23 12:30 PM GMT+10:00 20.87 km/h SSE (11.27 knots) 0.0 mm 1869.07 umol s-¹ m-² 72.4 % 27.1 °C 1012.5 hpa
2014-11-23 15:30 PM GMT+10:00 24.03 km/h SE (12.98 knots) 0.0 mm 1223.54 umol s-¹ m-² 72.2 % 27.3 °C 1010.9 hpa
2014-11-23 18:20 PM GMT+10:00 21.6 km/h SE (11.67 knots) 0.0 mm 27.31 umol s-¹ m-² 73.9 % 26.8 °C 1010.8 hpa
2014-11-23 05:40 AM GMT+10:00 22.8 km/h SE (12.31 knots) 0.0 mm 10.65 umol s-¹ m-² 75.2 % 26.5 °C 1011.5 hpa
2014-11-23 05:50 AM GMT+10:00 23.78 km/h SE (12.84 knots) 0.0 mm 30.47 umol s-¹ m-² 74.9 % 26.4 °C 1011.7 hpa
2014-11-23 06:20 AM GMT+10:00 22.36 km/h SE (12.07 knots) 0.0 mm 141.5 umol s-¹ m-² 73.7 % 26.4 °C 1012.2 hpa
2014-11-23 22:20 PM GMT+10:00 18.1 km/h ESE (9.77 knots) 0.0 mm 0.01 umol s-¹ m-² 74.7 % 26.9 °C 1013.0 hpa
2014-11-23 08:00 AM GMT+10:00 19.58 km/h SE (10.57 knots) 0.0 mm 991.57 umol s-¹ m-² 71.2 % 26.9 °C 1013.3 hpa
2014-11-23 06:00 AM GMT+10:00 22.0 km/h SE (11.88 knots) 0.0 mm 58.58 umol s-¹ m-² 75.2 % 26.4 °C 1011.8 hpa
2014-11-23 13:00 PM GMT+10:00 19.03 km/h SSE (10.27 knots) 0.0 mm 1841.34 umol s-¹ m-² 72.2 % 27.1 °C 1012.3 hpa
2014-11-23 02:10 AM GMT+10:00 22.56 km/h SE (12.18 knots) 0.0 mm -0.15 umol s-¹ m-² 73.1 % 26.3 °C 1011.0 hpa
2014-11-23 12:20 PM GMT+10:00 19.13 km/h SSE (10.33 knots) 0.0 mm 1875.94 umol s-¹ m-² 72.7 % 27.1 °C 1012.5 hpa
2014-11-23 18:50 PM GMT+10:00 22.04 km/h SE (11.9 knots) 0.0 mm 0.03 umol s-¹ m-² 75.0 % 27.0 °C 1011.2 hpa
2014-11-23 17:40 PM GMT+10:00 22.88 km/h ESE (12.36 knots) 0.0 mm 221.69 umol s-¹ m-² 71.7 % 27.1 °C 1010.7 hpa
2014-11-23 21:00 PM GMT+10:00 19.86 km/h ESE (10.73 knots) 0.0 mm 0.45 umol s-¹ m-² 75.0 % 26.8 °C 1012.6 hpa
2014-11-23 11:30 AM GMT+10:00 17.64 km/h SSE (9.53 knots) 0.0 mm 1854.91 umol s-¹ m-² 72.6 % 27.1 °C 1013.1 hpa
2014-11-23 20:00 PM GMT+10:00 23.62 km/h SE (12.75 knots) 0.0 mm 0.13 umol s-¹ m-² 75.8 % 26.9 °C 1012.1 hpa
2014-11-23 06:40 AM GMT+10:00 20.66 km/h SE (11.16 knots) 0.0 mm 363.71 umol s-¹ m-² 72.2 % 26.7 °C 1012.5 hpa
2014-11-23 17:10 PM GMT+10:00 24.76 km/h SE (13.37 knots) 0.0 mm 303.59 umol s-¹ m-² 74.8 % 27.1 °C 1010.5 hpa
2014-11-23 17:20 PM GMT+10:00 22.96 km/h SE (12.4 knots) 0.0 mm 381.57 umol s-¹ m-² 73.1 % 26.9 °C 1010.6 hpa
2014-11-23 12:00 PM GMT+10:00 17.25 km/h SSE (9.32 knots) 0.0 mm 1900.57 umol s-¹ m-² 73.0 % 27.2 °C 1012.6 hpa
2014-11-23 07:50 AM GMT+10:00 19.02 km/h SE (10.27 knots) 0.0 mm 764.08 umol s-¹ m-² 72.2 % 26.8 °C 1013.3 hpa
2014-11-23 10:30 AM GMT+10:00 17.61 km/h SE (9.51 knots) 0.0 mm 1767.46 umol s-¹ m-² 72.2 % 27.1 °C 1013.7 hpa
2014-11-23 15:40 PM GMT+10:00 25.0 km/h SE (13.5 knots) 0.0 mm 1154.45 umol s-¹ m-² 72.2 % 27.2 °C 1010.7 hpa
2014-11-23 21:40 PM GMT+10:00 19.95 km/h ESE (10.77 knots) 0.0 mm 0.61 umol s-¹ m-² 74.1 % 26.9 °C 1012.7 hpa
2014-11-24 01:20 AM GMT+10:00 11.17 km/h E (6.03 knots) 0.1 mm -0.18 umol s-¹ m-² 76.7 % 26.6 °C 1011.4 hpa
2014-11-23 13:20 PM GMT+10:00 20.08 km/h SSE (10.84 knots) 0.0 mm 1809.76 umol s-¹ m-² 73.1 % 27.2 °C 1012.1 hpa
2014-11-23 22:40 PM GMT+10:00 17.67 km/h ESE (9.54 knots) 0.0 mm 0.36 umol s-¹ m-² 75.3 % 26.9 °C 1013.0 hpa
2014-11-23 12:50 PM GMT+10:00 20.4 km/h SSE (11.01 knots) 0.0 mm 1842.24 umol s-¹ m-² 73.2 % 27.1 °C 1012.3 hpa
2014-11-23 03:40 AM GMT+10:00 22.47 km/h SE (12.14 knots) 0.0 mm 0.64 umol s-¹ m-² 72.7 % 26.4 °C 1010.9 hpa
2014-11-23 20:50 PM GMT+10:00 19.41 km/h ESE (10.48 knots) 0.0 mm 0.83 umol s-¹ m-² 75.7 % 27.0 °C 1012.5 hpa
2014-11-23 11:40 AM GMT+10:00 17.85 km/h SE (9.64 knots) 0.0 mm 1903.94 umol s-¹ m-² 72.2 % 27.1 °C 1013.0 hpa
2014-11-24 00:40 AM GMT+10:00 18.66 km/h ESE (10.07 knots) 0.0 mm 1.66 umol s-¹ m-² 77.4 % 26.7 °C 1011.9 hpa
Date wind speed water temperature@6.0m rain light humidity air temperature air pressure